Time;durP1;ratioP1;P1;durP2;ratioP2;P2;SDS_P1;SDS_P2;PMS_P1;PMS_P2;Temp;Humidity;BMP_temperature;BMP_pressure;BME280_temperature;BME280_humidity;BME280_pressure;Samples;Min_cycle;Max_cycle;Signal;HPM_P1;HPM_P2
2023/08/29 00:01:05;;;;;;;5.60;2.30;;;;;;;;;;5074025;28;20245;-55
2023/08/29 00:03:33;;;;;;;4.47;2.60;;;;;;;;;;5071797;28;20230;-54
2023/08/29 00:06:00;;;;;;;3.43;2.50;;;;;;;;;;5072294;28;20199;-57
2023/08/29 00:08:28;;;;;;;2.87;2.20;;;;;;;;;;5074047;28;20191;-53
2023/08/29 00:10:55;;;;;;;2.40;2.20;;;;;;;;;;5074020;28;20199;-53
2023/08/29 00:13:21;;;;;;;2.93;2.20;;;;;;;;;;5073832;28;20227;-52
2023/08/29 00:15:47;;;;;;;2.47;2.27;;;;;;;;;;5073328;28;20231;-53
2023/08/29 00:18:13;;;;;;;3.47;2.03;;;;;;;;;;5073861;28;20227;-53
2023/08/29 00:20:39;;;;;;;3.20;2.10;;;;;;;;;;5073858;28;20302;-53
2023/08/29 00:23:09;;;;;;;2.67;1.90;;;;;;;;;;5073677;28;20596;-53
2023/08/29 00:25:36;;;;;;;2.57;2.30;;;;;;;;;;5073602;28;20290;-52
2023/08/29 00:28:03;;;;;;;2.83;2.63;;;;;;;;;;5073580;28;20590;-52
2023/08/29 00:30:32;;;;;;;2.93;2.20;;;;;;;;;;5073527;28;20203;-53
2023/08/29 00:32:59;;;;;;;4.03;2.30;;;;;;;;;;5073556;28;20188;-53
2023/08/29 00:35:25;;;;;;;2.93;2.40;;;;;;;;;;5073780;28;20219;-53
2023/08/29 00:37:50;;;;;;;3.67;2.30;;;;;;;;;;5073260;28;20294;-53
2023/08/29 00:40:17;;;;;;;3.00;2.50;;;;;;;;;;5073306;28;20295;-53
2023/08/29 00:42:44;;;;;;;4.07;2.40;;;;;;;;;;5072860;28;20720;-53
2023/08/29 00:45:10;;;;;;;2.90;2.20;;;;;;;;;;5073387;28;20299;-53
2023/08/29 00:47:37;;;;;;;5.50;2.77;;;;;;;;;;5073201;28;20234;-53
2023/08/29 00:50:03;;;;;;;4.10;2.50;;;;;;;;;;5073192;28;20203;-53
2023/08/29 00:52:29;;;;;;;3.40;2.50;;;;;;;;;;5073253;28;20184;-53
2023/08/29 00:54:55;;;;;;;3.37;2.40;;;;;;;;;;5073234;28;20192;-53
2023/08/29 00:57:21;;;;;;;2.80;2.40;;;;;;;;;;5073068;28;20195;-52
2023/08/29 00:59:48;;;;;;;2.43;2.23;;;;;;;;;;5072838;28;20206;-52
2023/08/29 01:02:14;;;;;;;3.53;2.53;;;;;;;;;;5072947;28;20238;-53
2023/08/29 01:04:40;;;;;;;2.70;2.50;;;;;;;;;;5072737;28;20251;-53
2023/08/29 01:07:07;;;;;;;3.33;2.60;;;;;;;;;;5072837;28;20271;-53
2023/08/29 01:09:34;;;;;;;3.57;2.70;;;;;;;;;;5072684;28;20231;-53
2023/08/29 01:12:06;;;;;;;2.63;2.07;;;;;;;;;;5072598;28;20549;-52
2023/08/29 01:14:35;;;;;;;4.03;2.70;;;;;;;;;;5072570;28;20658;-53
2023/08/29 01:17:06;;;;;;;2.73;2.30;;;;;;;;;;5072711;28;20218;-52
2023/08/29 01:19:33;;;;;;;3.27;2.53;;;;;;;;;;5072533;28;20693;-53
2023/08/29 01:22:03;;;;;;;2.47;2.23;;;;;;;;;;5072553;28;20235;-52
2023/08/29 01:24:32;;;;;;;2.33;2.00;;;;;;;;;;5072417;28;20740;-53
2023/08/29 01:27:00;;;;;;;2.53;2.27;;;;;;;;;;5071553;28;20462;-52
2023/08/29 01:29:28;;;;;;;2.40;2.20;;;;;;;;;;5072427;28;20291;-53
2023/08/29 01:31:55;;;;;;;4.17;2.20;;;;;;;;;;5072388;28;20202;-53
2023/08/29 01:34:21;;;;;;;2.80;2.23;;;;;;;;;;5072343;28;20274;-53
2023/08/29 01:36:47;;;;;;;2.37;2.17;;;;;;;;;;5072088;28;20545;-53
2023/08/29 01:39:13;;;;;;;2.07;1.87;;;;;;;;;;5072205;28;20195;-52
2023/08/29 01:41:39;;;;;;;2.47;2.10;;;;;;;;;;5072358;28;20195;-53
2023/08/29 01:44:07;;;;;;;2.63;2.13;;;;;;;;;;5071912;28;20322;-53
2023/08/29 01:46:33;;;;;;;2.67;2.20;;;;;;;;;;5072000;28;20303;-53
2023/08/29 01:49:00;;;;;;;2.43;2.23;;;;;;;;;;5072053;28;20357;-53
2023/08/29 01:51:26;;;;;;;2.60;2.20;;;;;;;;;;5072168;28;20206;-53
2023/08/29 01:53:52;;;;;;;2.57;2.20;;;;;;;;;;5071911;28;20191;-53
2023/08/29 01:56:19;;;;;;;2.93;2.30;;;;;;;;;;5070636;28;20262;-53
2023/08/29 01:58:46;;;;;;;2.23;2.03;;;;;;;;;;5071681;28;20290;-53
2023/08/29 02:01:13;;;;;;;2.33;2.13;;;;;;;;;;5071940;28;20199;-53
2023/08/29 02:03:39;;;;;;;2.83;2.20;;;;;;;;;;5072024;28;20231;-53
2023/08/29 02:06:05;;;;;;;2.70;2.00;;;;;;;;;;5071811;28;20244;-53
2023/08/29 02:08:31;;;;;;;2.50;2.30;;;;;;;;;;5071691;28;20250;-53
2023/08/29 02:10:57;;;;;;;2.30;2.10;;;;;;;;;;5071656;28;20266;-53
2023/08/29 02:13:24;;;;;;;2.10;2.00;;;;;;;;;;5071718;28;20245;-52
2023/08/29 02:15:50;;;;;;;2.40;2.20;;;;;;;;;;5071449;28;20661;-53
2023/08/29 02:18:17;;;;;;;2.33;2.13;;;;;;;;;;5071560;28;20388;-53
2023/08/29 02:20:43;;;;;;;3.27;2.33;;;;;;;;;;5071543;28;20218;-53
2023/08/29 02:23:09;;;;;;;2.70;2.30;;;;;;;;;;5071714;28;20266;-53
2023/08/29 02:25:35;;;;;;;2.77;2.00;;;;;;;;;;5071401;28;20685;-53
2023/08/29 02:28:01;;;;;;;3.60;2.20;;;;;;;;;;5071325;28;20730;-53
2023/08/29 02:30:27;;;;;;;3.17;2.20;;;;;;;;;;5071539;28;20203;-53
2023/08/29 02:32:53;;;;;;;2.43;2.23;;;;;;;;;;5071526;28;20299;-53
2023/08/29 02:35:20;;;;;;;2.37;1.80;;;;;;;;;;5071363;28;20709;-53
2023/08/29 02:37:46;;;;;;;2.30;2.10;;;;;;;;;;5071093;28;20274;-53
2023/08/29 02:40:13;;;;;;;2.43;2.23;;;;;;;;;;5071472;28;20207;-53
2023/08/29 02:42:39;;;;;;;2.20;2.00;;;;;;;;;;5070977;28;20284;-53
2023/08/29 02:45:05;;;;;;;2.30;2.10;;;;;;;;;;5071335;28;20203;-53
2023/08/29 02:47:31;;;;;;;3.07;2.23;;;;;;;;;;5071256;28;20206;-53
2023/08/29 02:49:57;;;;;;;3.67;2.37;;;;;;;;;;5071283;28;20187;-53
2023/08/29 02:52:24;;;;;;;2.30;2.10;;;;;;;;;;5071440;28;20200;-53
2023/08/29 02:54:50;;;;;;;2.40;2.20;;;;;;;;;;5071137;28;20226;-52
2023/08/29 02:57:16;;;;;;;2.90;2.33;;;;;;;;;;5071111;28;20270;-52
2023/08/29 02:59:42;;;;;;;2.87;2.37;;;;;;;;;;5071087;28;20226;-52
2023/08/29 03:02:08;;;;;;;2.77;2.57;;;;;;;;;;5071271;28;20270;-52
2023/08/29 03:04:34;;;;;;;2.70;2.50;;;;;;;;;;5071056;28;20262;-52
2023/08/29 03:07:02;;;;;;;2.70;2.37;;;;;;;;;;5071066;28;20601;-52
2023/08/29 03:09:30;;;;;;;2.50;2.30;;;;;;;;;;5071156;28;20200;-52
2023/08/29 03:11:56;;;;;;;2.77;2.30;;;;;;;;;;5071206;28;20211;-52
2023/08/29 03:14:22;;;;;;;2.30;2.10;;;;;;;;;;5070979;28;20242;-52
2023/08/29 03:16:48;;;;;;;2.70;2.50;;;;;;;;;;5070950;28;20202;-52
2023/08/29 03:19:14;;;;;;;2.77;2.17;;;;;;;;;;5071015;28;20199;-52
2023/08/29 03:21:40;;;;;;;2.43;2.20;;;;;;;;;;5071010;28;20218;-52
2023/08/29 03:24:07;;;;;;;3.13;2.27;;;;;;;;;;5071065;28;20251;-52
2023/08/29 03:26:34;;;;;;;2.57;2.37;;;;;;;;;;5070903;28;20238;-52
2023/08/29 03:29:00;;;;;;;2.30;2.10;;;;;;;;;;5070749;28;20203;-52
2023/08/29 03:31:26;;;;;;;4.03;2.30;;;;;;;;;;5071194;28;20650;-52
2023/08/29 03:33:52;;;;;;;2.40;2.20;;;;;;;;;;5070815;28;20680;-52
2023/08/29 03:36:19;;;;;;;2.73;2.53;;;;;;;;;;5070917;28;20295;-52
2023/08/29 03:38:45;;;;;;;2.50;2.30;;;;;;;;;;5070713;28;20222;-52
2023/08/29 03:41:11;;;;;;;3.20;2.40;;;;;;;;;;5070964;28;20199;-52
2023/08/29 03:43:39;;;;;;;2.30;2.10;;;;;;;;;;5070458;28;20243;-52
2023/08/29 03:46:06;;;;;;;2.30;2.10;;;;;;;;;;5070763;28;20257;-52
2023/08/29 03:48:32;;;;;;;2.50;2.20;;;;;;;;;;5070709;28;20273;-52
2023/08/29 03:50:58;;;;;;;4.33;2.13;;;;;;;;;;5072812;28;20195;-52
2023/08/29 03:53:24;;;;;;;2.13;2.03;;;;;;;;;;5074348;28;20230;-52
2023/08/29 03:55:50;;;;;;;2.67;2.33;;;;;;;;;;5073876;28;20764;-52
2023/08/29 03:58:16;;;;;;;2.47;2.27;;;;;;;;;;5074135;28;20231;-52
2023/08/29 04:00:43;;;;;;;2.47;2.27;;;;;;;;;;5074201;28;20229;-52
2023/08/29 04:03:10;;;;;;;2.10;2.00;;;;;;;;;;5074354;28;20227;-52
2023/08/29 04:05:36;;;;;;;2.43;2.23;;;;;;;;;;5074089;28;20196;-52
2023/08/29 04:08:03;;;;;;;2.40;2.20;;;;;;;;;;5073919;28;20661;-52
2023/08/29 04:10:29;;;;;;;2.30;2.10;;;;;;;;;;5074057;28;20219;-52
2023/08/29 04:12:55;;;;;;;2.37;1.93;;;;;;;;;;5073881;28;20230;-52
2023/08/29 04:15:23;;;;;;;3.43;2.37;;;;;;;;;;5073878;28;20195;-52
2023/08/29 04:17:51;;;;;;;2.17;1.97;;;;;;;;;;5073563;28;20666;-52
2023/08/29 04:20:17;;;;;;;3.03;2.10;;;;;;;;;;5073846;28;20352;-51
2023/08/29 04:22:43;;;;;;;2.57;2.37;;;;;;;;;;5073725;28;20230;-52
2023/08/29 04:25:09;;;;;;;2.70;2.27;;;;;;;;;;5073921;28;20228;-52
2023/08/29 04:27:35;;;;;;;2.40;2.20;;;;;;;;;;5073704;28;20203;-51
2023/08/29 04:30:01;;;;;;;2.60;2.13;;;;;;;;;;5073694;28;20234;-52
2023/08/29 04:32:33;;;;;;;2.83;2.50;;;;;;;;;;5073920;28;20222;-52
2023/08/29 04:35:01;;;;;;;3.30;2.43;;;;;;;;;;5073800;28;20274;-52
2023/08/29 04:37:27;;;;;;;2.63;2.43;;;;;;;;;;5073272;28;20246;-52
2023/08/29 04:39:53;;;;;;;3.23;2.53;;;;;;;;;;5072998;28;20199;-52
2023/08/29 04:42:19;;;;;;;3.13;2.77;;;;;;;;;;5072902;28;20246;-52
2023/08/29 04:44:45;;;;;;;2.90;2.70;;;;;;;;;;5072868;28;20235;-52
2023/08/29 04:47:11;;;;;;;2.70;2.50;;;;;;;;;;5073313;28;20195;-53
2023/08/29 04:49:37;;;;;;;3.37;3.07;;;;;;;;;;5073238;28;20183;-52
2023/08/29 04:52:05;;;;;;;3.17;2.60;;;;;;;;;;5073246;28;20200;-52
2023/08/29 04:54:31;;;;;;;2.80;2.60;;;;;;;;;;5073401;28;20286;-52
2023/08/29 04:56:57;;;;;;;2.80;2.43;;;;;;;;;;5073155;28;20230;-52
2023/08/29 04:59:23;;;;;;;2.80;2.60;;;;;;;;;;5073323;28;20555;-52
2023/08/29 05:01:50;;;;;;;4.40;2.60;;;;;;;;;;5072852;28;20192;-52
2023/08/29 05:04:16;;;;;;;2.43;2.23;;;;;;;;;;5072768;28;20225;-52
2023/08/29 05:06:42;;;;;;;2.67;2.47;;;;;;;;;;5072808;28;20195;-52
2023/08/29 05:09:09;;;;;;;3.00;2.60;;;;;;;;;;5072823;28;20740;-52
2023/08/29 05:11:36;;;;;;;2.80;2.60;;;;;;;;;;5072742;28;20203;-53
2023/08/29 05:14:02;;;;;;;2.87;2.60;;;;;;;;;;5072482;28;20223;-52
2023/08/29 05:16:28;;;;;;;3.43;3.13;;;;;;;;;;5072283;28;20199;-52
2023/08/29 05:18:54;;;;;;;3.67;2.70;;;;;;;;;;5072360;28;20208;-52
2023/08/29 05:21:20;;;;;;;2.90;2.60;;;;;;;;;;5072502;28;20208;-52
2023/08/29 05:23:47;;;;;;;3.47;3.17;;;;;;;;;;5071889;28;20693;-53
2023/08/29 05:26:14;;;;;;;3.63;3.33;;;;;;;;;;5072633;28;20207;-53
2023/08/29 05:28:40;;;;;;;4.37;3.17;;;;;;;;;;5072425;28;20286;-53
2023/08/29 05:31:06;;;;;;;3.40;3.10;;;;;;;;;;5072190;28;20227;-53
2023/08/29 05:33:32;;;;;;;3.50;2.83;;;;;;;;;;5072211;28;20692;-53
2023/08/29 05:35:58;;;;;;;3.03;2.83;;;;;;;;;;5072105;28;20699;-53
2023/08/29 05:38:27;;;;;;;3.70;3.40;;;;;;;;;;5072566;28;20200;-53
2023/08/29 05:40:56;;;;;;;3.73;3.43;;;;;;;;;;5072236;28;20278;-53
2023/08/29 05:43:23;;;;;;;3.63;3.33;;;;;;;;;;5071879;28;20235;-53
2023/08/29 05:45:49;;;;;;;4.47;3.77;;;;;;;;;;5071914;28;20203;-53
2023/08/29 05:48:15;;;;;;;4.30;3.90;;;;;;;;;;5072013;28;20203;-53
2023/08/29 05:50:41;;;;;;;3.60;3.30;;;;;;;;;;5071874;28;20188;-53
2023/08/29 05:53:07;;;;;;;3.20;2.90;;;;;;;;;;5072068;28;20192;-53
2023/08/29 05:55:33;;;;;;;3.20;2.90;;;;;;;;;;5071845;28;20195;-53
2023/08/29 05:57:59;;;;;;;3.17;2.93;;;;;;;;;;5071678;28;20210;-53
2023/08/29 06:00:27;;;;;;;3.27;2.97;;;;;;;;;;5071725;28;20199;-53
2023/08/29 06:02:53;;;;;;;5.17;3.07;;;;;;;;;;5071362;28;20203;-53
2023/08/29 06:05:19;;;;;;;3.43;3.13;;;;;;;;;;5071346;28;20200;-53
2023/08/29 06:07:46;;;;;;;5.67;3.10;;;;;;;;;;5070910;28;20279;-53
2023/08/29 06:10:12;;;;;;;3.50;3.20;;;;;;;;;;5071419;28;20204;-53
2023/08/29 06:12:38;;;;;;;4.60;3.40;;;;;;;;;;5070801;28;20204;-53
2023/08/29 06:15:04;;;;;;;3.70;3.40;;;;;;;;;;5071452;28;20220;-53
2023/08/29 06:17:32;;;;;;;4.13;3.33;;;;;;;;;;5071338;28;20196;-55
2023/08/29 06:19:58;;;;;;;3.90;3.60;;;;;;;;;;5071219;28;20649;-53
2023/08/29 06:22:25;;;;;;;3.80;3.50;;;;;;;;;;5071392;28;20206;-53
2023/08/29 06:24:51;;;;;;;4.03;3.73;;;;;;;;;;5071134;28;20224;-53
2023/08/29 06:27:17;;;;;;;7.53;3.70;;;;;;;;;;5071375;28;20227;-53
2023/08/29 06:29:43;;;;;;;4.47;4.17;;;;;;;;;;5071131;28;20669;-53
2023/08/29 06:32:09;;;;;;;4.60;4.20;;;;;;;;;;5071321;28;20199;-52
2023/08/29 06:34:36;;;;;;;4.00;3.70;;;;;;;;;;5071247;28;20199;-52
2023/08/29 06:37:02;;;;;;;4.80;4.13;;;;;;;;;;5071061;28;20662;-53
2023/08/29 06:39:28;;;;;;;4.23;3.83;;;;;;;;;;5071092;28;20202;-53
2023/08/29 06:41:55;;;;;;;4.70;4.20;;;;;;;;;;5070614;28;20195;-53
2023/08/29 06:44:21;;;;;;;5.47;4.40;;;;;;;;;;5071207;28;20255;-53
2023/08/29 06:46:48;;;;;;;5.20;4.50;;;;;;;;;;5070899;28;20367;-52
2023/08/29 06:49:15;;;;;;;4.97;4.57;;;;;;;;;;5070887;28;20191;-53
2023/08/29 06:51:43;;;;;;;5.97;4.47;;;;;;;;;;5070960;28;20202;-53
2023/08/29 06:54:09;;;;;;;5.03;4.60;;;;;;;;;;5071173;28;20215;-54
2023/08/29 06:56:35;;;;;;;4.80;4.07;;;;;;;;;;5070734;28;20692;-54
2023/08/29 06:59:01;;;;;;;4.57;4.17;;;;;;;;;;5070772;28;20779;-53
2023/08/29 07:01:27;;;;;;;4.60;4.07;;;;;;;;;;5071048;28;20191;-53
2023/08/29 07:03:53;;;;;;;5.10;4.50;;;;;;;;;;5071113;28;20211;-53
2023/08/29 07:06:19;;;;;;;6.00;5.40;;;;;;;;;;5071052;28;20202;-54
2023/08/29 07:08:47;;;;;;;5.13;4.63;;;;;;;;;;5071079;28;20298;-52
2023/08/29 07:11:13;;;;;;;4.63;4.23;;;;;;;;;;5070966;28;20196;-54
2023/08/29 07:13:39;;;;;;;4.63;4.23;;;;;;;;;;5071115;28;20192;-53
2023/08/29 07:16:05;;;;;;;4.70;4.30;;;;;;;;;;5070988;28;20206;-52
2023/08/29 07:18:32;;;;;;;4.23;3.83;;;;;;;;;;5070968;28;20231;-53
2023/08/29 07:20:59;;;;;;;3.87;3.53;;;;;;;;;;5070896;28;20204;-52
2023/08/29 07:23:25;;;;;;;4.10;3.80;;;;;;;;;;5071062;28;20207;-52
2023/08/29 07:25:53;;;;;;;4.17;3.70;;;;;;;;;;5073028;28;20195;-53
2023/08/29 07:28:19;;;;;;;3.83;3.50;;;;;;;;;;5074703;28;20253;-53
2023/08/29 07:30:46;;;;;;;4.43;3.80;;;;;;;;;;5074639;28;20573;-52
2023/08/29 07:33:12;;;;;;;3.80;3.43;;;;;;;;;;5074605;28;20199;-52
2023/08/29 07:35:38;;;;;;;5.13;4.60;;;;;;;;;;5074747;28;20211;-53
2023/08/29 07:38:05;;;;;;;4.80;4.40;;;;;;;;;;5074715;28;20206;-54
2023/08/29 07:40:32;;;;;;;5.73;5.23;;;;;;;;;;5074417;28;20202;-53
2023/08/29 07:43:01;;;;;;;6.00;5.17;;;;;;;;;;5073993;28;20610;-53
2023/08/29 07:45:27;;;;;;;5.93;5.37;;;;;;;;;;5074285;28;20246;-53
2023/08/29 07:47:53;;;;;;;6.33;5.83;;;;;;;;;;5074600;28;20245;-54
2023/08/29 07:50:19;;;;;;;9.23;6.90;;;;;;;;;;5074354;28;20200;-54
2023/08/29 07:52:45;;;;;;;7.07;6.37;;;;;;;;;;5074213;28;20195;-55
2023/08/29 07:55:11;;;;;;;7.63;6.93;;;;;;;;;;5072592;28;20654;-54
2023/08/29 07:57:37;;;;;;;6.13;5.63;;;;;;;;;;5074232;28;20192;-53
2023/08/29 08:00:08;;;;;;;10.13;6.63;;;;;;;;;;5074136;28;20192;-54
2023/08/29 08:02:38;;;;;;;6.70;5.97;;;;;;;;;;5074017;28;20242;-55
2023/08/29 08:05:04;;;;;;;6.53;5.60;;;;;;;;;;5065079;28;20223;-54
2023/08/29 08:07:31;;;;;;;7.63;6.63;;;;;;;;;;5073678;28;20223;-54
2023/08/29 08:09:57;;;;;;;5.97;5.47;;;;;;;;;;5073811;28;20223;-54
2023/08/29 08:12:23;;;;;;;7.20;6.60;;;;;;;;;;5073809;28;20719;-54
2023/08/29 08:14:51;;;;;;;6.27;5.77;;;;;;;;;;5073615;28;20282;-54
2023/08/29 08:17:18;;;;;;;6.53;5.93;;;;;;;;;;5071831;28;20205;-54
2023/08/29 08:19:44;;;;;;;6.50;6.00;;;;;;;;;;5071994;28;20274;-56
2023/08/29 08:22:11;;;;;;;7.43;6.60;;;;;;;;;;5073722;28;20225;-58
2023/08/29 08:24:37;;;;;;;6.33;5.30;;;;;;;;;;5073621;28;20236;-57
2023/08/29 08:27:05;;;;;;;6.37;5.27;;;;;;;;;;5073392;28;20649;-55
2023/08/29 08:29:31;;;;;;;6.27;5.63;;;;;;;;;;5073447;28;20574;-55
2023/08/29 08:31:58;;;;;;;4.77;4.27;;;;;;;;;;5073535;28;20202;-54
2023/08/29 08:34:25;;;;;;;4.97;4.57;;;;;;;;;;5073656;28;20245;-53
2023/08/29 08:36:51;;;;;;;5.70;5.20;;;;;;;;;;5072935;28;20729;-53
2023/08/29 08:39:17;;;;;;;6.77;5.20;;;;;;;;;;5073490;28;20195;-53
2023/08/29 08:41:43;;;;;;;5.20;4.70;;;;;;;;;;5073072;28;20194;-53
2023/08/29 08:44:10;;;;;;;4.33;3.90;;;;;;;;;;5073256;28;20239;-53
2023/08/29 08:46:36;;;;;;;5.67;3.87;;;;;;;;;;5073519;28;20417;-53
2023/08/29 08:49:02;;;;;;;4.53;3.80;;;;;;;;;;5073164;28;20268;-52
2023/08/29 08:51:31;;;;;;;3.27;2.87;;;;;;;;;;5073180;28;20230;-52
2023/08/29 08:53:58;;;;;;;3.90;3.17;;;;;;;;;;5073122;28;20709;-52
2023/08/29 08:56:24;;;;;;;3.93;2.60;;;;;;;;;;5073229;28;20202;-52
2023/08/29 08:58:50;;;;;;;3.33;2.30;;;;;;;;;;5072993;28;20211;-52
2023/08/29 09:01:16;;;;;;;2.77;1.90;;;;;;;;;;5073080;28;20198;-52
2023/08/29 09:03:42;;;;;;;3.53;1.97;;;;;;;;;;5072734;28;20752;-52
2023/08/29 09:06:09;;;;;;;5.23;2.30;;;;;;;;;;5073034;28;20674;-53
2023/08/29 09:08:37;;;;;;;2.43;2.00;;;;;;;;;;5072906;28;20659;-52
2023/08/29 09:11:04;;;;;;;3.27;1.93;;;;;;;;;;5072640;28;20558;-51
2023/08/29 09:13:30;;;;;;;1.87;1.43;;;;;;;;;;5072987;28;20203;-53
2023/08/29 09:15:58;;;;;;;1.53;0.90;;;;;;;;;;5072639;28;20249;-51
2023/08/29 09:18:24;;;;;;;2.17;1.10;;;;;;;;;;5072793;28;20199;-52
2023/08/29 09:20:52;;;;;;;1.80;1.10;;;;;;;;;;5072556;28;20246;-53
2023/08/29 09:23:21;;;;;;;2.30;1.13;;;;;;;;;;5072499;28;20211;-52
2023/08/29 09:25:53;;;;;;;1.77;1.30;;;;;;;;;;5072394;28;20192;-53
2023/08/29 09:28:19;;;;;;;2.77;1.53;;;;;;;;;;5072565;28;20200;-53
2023/08/29 09:30:45;;;;;;;2.57;1.70;;;;;;;;;;5072372;28;20184;-53
2023/08/29 09:33:12;;;;;;;2.13;1.27;;;;;;;;;;5072364;28;20202;-53
2023/08/29 09:35:38;;;;;;;2.47;1.17;;;;;;;;;;5072408;28;20207;-53
2023/08/29 09:38:04;;;;;;;1.73;1.00;;;;;;;;;;5072196;28;20206;-53
2023/08/29 09:40:30;;;;;;;1.80;1.17;;;;;;;;;;5072278;28;20208;-53
2023/08/29 09:42:59;;;;;;;1.53;1.13;;;;;;;;;;5071923;28;20251;-53
2023/08/29 09:45:26;;;;;;;2.17;1.20;;;;;;;;;;5072341;28;20586;-53
2023/08/29 09:47:53;;;;;;;2.13;1.20;;;;;;;;;;5071299;28;20650;-53
2023/08/29 09:50:20;;;;;;;1.70;1.13;;;;;;;;;;5072062;28;20244;-52
2023/08/29 09:52:46;;;;;;;1.77;0.97;;;;;;;;;;5072017;28;20682;-53
2023/08/29 09:55:14;;;;;;;2.50;1.20;;;;;;;;;;5071948;28;20232;-53
2023/08/29 09:57:40;;;;;;;1.13;1.07;;;;;;;;;;5071945;28;20203;-53
2023/08/29 10:00:10;;;;;;;3.70;1.37;;;;;;;;;;5071806;28;20668;-53
2023/08/29 10:02:37;;;;;;;2.83;1.30;;;;;;;;;;5072030;28;20217;-52
2023/08/29 10:05:05;;;;;;;4.00;1.30;;;;;;;;;;5071575;28;20564;-52
2023/08/29 10:07:35;;;;;;;1.20;0.97;;;;;;;;;;5071721;28;20206;-53
2023/08/29 10:10:01;;;;;;;1.30;0.83;;;;;;;;;;5071602;28;20206;-53
2023/08/29 10:12:28;;;;;;;0.77;0.77;;;;;;;;;;5071599;28;20203;-53
2023/08/29 10:14:54;;;;;;;2.03;0.83;;;;;;;;;;5071653;28;20196;-52
2023/08/29 10:17:22;;;;;;;1.77;0.90;;;;;;;;;;5071539;28;20194;-52
2023/08/29 10:19:49;;;;;;;0.87;0.83;;;;;;;;;;5071524;28;20218;-53
2023/08/29 10:22:16;;;;;;;1.50;0.90;;;;;;;;;;5071386;28;20197;-53
2023/08/29 10:24:44;;;;;;;2.40;0.80;;;;;;;;;;5071674;28;20253;-53
2023/08/29 10:27:10;;;;;;;4.53;0.93;;;;;;;;;;5071759;28;20668;-53
2023/08/29 10:29:37;;;;;;;1.20;0.97;;;;;;;;;;5071595;28;20198;-53
2023/08/29 10:32:04;;;;;;;0.80;0.80;;;;;;;;;;5071500;28;20206;-53
2023/08/29 10:34:31;;;;;;;2.00;1.30;;;;;;;;;;5071725;28;20194;-53
2023/08/29 10:36:59;;;;;;;1.40;1.20;;;;;;;;;;5071599;28;20203;-53
2023/08/29 10:39:26;;;;;;;3.00;1.00;;;;;;;;;;5071696;28;20278;-54
2023/08/29 10:41:53;;;;;;;1.10;1.00;;;;;;;;;;5070970;28;20202;-54
2023/08/29 10:44:24;;;;;;;1.33;1.20;;;;;;;;;;5071426;28;20260;-53
2023/08/29 10:46:53;;;;;;;2.37;1.50;;;;;;;;;;5071425;28;20200;-53
2023/08/29 10:49:21;;;;;;;3.20;1.43;;;;;;;;;;5071480;28;20211;-53
2023/08/29 10:52:06;;;;;;;1.20;1.10;;;;;;;;;;5071362;28;20198;-53
2023/08/29 10:54:32;;;;;;;1.30;1.20;;;;;;;;;;5071588;28;20202;-53
2023/08/29 10:56:58;;;;;;;1.30;1.20;;;;;;;;;;5071319;28;20311;-53
2023/08/29 10:59:29;;;;;;;1.63;1.50;;;;;;;;;;5073120;28;20205;-53
2023/08/29 11:02:09;;;;;;;2.20;1.20;;;;;;;;;;5075580;28;20195;-53
2023/08/29 11:04:36;;;;;;;2.33;1.20;;;;;;;;;;5075167;28;20255;-53
2023/08/29 11:07:04;;;;;;;2.13;1.00;;;;;;;;;;5075435;28;20632;-53
2023/08/29 11:09:30;;;;;;;2.03;1.10;;;;;;;;;;5075437;28;20604;-53
2023/08/29 11:12:09;;;;;;;2.03;1.37;;;;;;;;;;5075369;28;20201;-53
2023/08/29 11:14:55;;;;;;;2.33;1.43;;;;;;;;;;5075213;28;20528;-53
2023/08/29 11:17:24;;;;;;;1.50;1.40;;;;;;;;;;5075168;28;20192;-53
2023/08/29 11:19:54;;;;;;;3.13;1.40;;;;;;;;;;5075081;28;20215;-53
2023/08/29 11:22:31;;;;;;;1.70;1.50;;;;;;;;;;5075218;28;20202;-53
2023/08/29 11:24:57;;;;;;;2.10;1.50;;;;;;;;;;5075068;28;20719;-53
2023/08/29 11:27:24;;;;;;;1.47;1.30;;;;;;;;;;5075221;28;20198;-53
2023/08/29 11:29:52;;;;;;;2.23;1.10;;;;;;;;;;5074950;28;20201;-53
2023/08/29 11:32:21;;;;;;;1.43;1.33;;;;;;;;;;5074984;28;20263;-53
2023/08/29 11:34:51;;;;;;;2.70;1.30;;;;;;;;;;5074770;28;20665;-53
2023/08/29 11:37:17;;;;;;;1.20;1.10;;;;;;;;;;5074756;28;20292;-53
2023/08/29 11:39:52;;;;;;;1.23;0.87;;;;;;;;;;5074764;28;20222;-53
2023/08/29 11:42:20;;;;;;;1.43;1.20;;;;;;;;;;5074817;28;20265;-53
2023/08/29 11:44:46;;;;;;;1.73;1.60;;;;;;;;;;5074713;28;20261;-54
2023/08/29 11:47:14;;;;;;;2.67;1.23;;;;;;;;;;5074710;28;20206;-53
2023/08/29 11:49:41;;;;;;;1.87;1.30;;;;;;;;;;5074777;28;20271;-53
2023/08/29 11:52:07;;;;;;;1.43;1.33;;;;;;;;;;5074602;28;20212;-53
2023/08/29 11:54:38;;;;;;;1.30;1.20;;;;;;;;;;5074653;28;20222;-53
2023/08/29 11:57:06;;;;;;;2.30;1.40;;;;;;;;;;5074279;28;20247;-53
2023/08/29 11:59:32;;;;;;;1.50;1.40;;;;;;;;;;5074335;28;20688;-53
2023/08/29 12:01:58;;;;;;;2.13;1.70;;;;;;;;;;5074390;28;20289;-53
2023/08/29 12:04:24;;;;;;;1.97;1.40;;;;;;;;;;5074654;28;20626;-53
2023/08/29 12:06:50;;;;;;;2.60;1.57;;;;;;;;;;5074187;28;20676;-53
2023/08/29 12:09:21;;;;;;;1.33;1.23;;;;;;;;;;5074332;28;20206;-53
2023/08/29 12:11:47;;;;;;;1.77;1.20;;;;;;;;;;5073474;28;20191;-53
2023/08/29 12:14:15;;;;;;;2.07;1.10;;;;;;;;;;5073920;28;20600;-53
2023/08/29 12:16:41;;;;;;;1.20;1.10;;;;;;;;;;5074326;28;20212;-53
2023/08/29 12:19:12;;;;;;;1.40;1.20;;;;;;;;;;5073976;28;20212;-54
2023/08/29 12:21:38;;;;;;;2.20;1.40;;;;;;;;;;5074015;28;20669;-53
2023/08/29 12:24:11;;;;;;;1.40;1.00;;;;;;;;;;5074100;28;20225;-53
2023/08/29 12:26:37;;;;;;;1.40;1.30;;;;;;;;;;5073959;28;20238;-53
2023/08/29 12:29:03;;;;;;;1.77;1.63;;;;;;;;;;5073756;28;20829;-54
2023/08/29 12:31:30;;;;;;;1.37;1.20;;;;;;;;;;5073715;28;20712;-54
2023/08/29 12:33:56;;;;;;;1.67;1.30;;;;;;;;;;5073750;28;20291;-53
2023/08/29 12:36:22;;;;;;;1.70;1.50;;;;;;;;;;5073785;28;20240;-53
2023/08/29 12:38:48;;;;;;;1.63;1.40;;;;;;;;;;5073622;28;20196;-53
2023/08/29 12:41:16;;;;;;;2.00;1.50;;;;;;;;;;5073599;28;20250;-52
2023/08/29 12:43:43;;;;;;;2.17;1.87;;;;;;;;;;5073281;28;20260;-53
2023/08/29 12:46:09;;;;;;;1.60;1.50;;;;;;;;;;5073668;28;20619;-53
2023/08/29 12:48:36;;;;;;;2.23;2.00;;;;;;;;;;5073532;28;20200;-52
2023/08/29 12:51:03;;;;;;;2.97;1.70;;;;;;;;;;5073442;28;20295;-53
2023/08/29 12:53:29;;;;;;;1.83;1.63;;;;;;;;;;5073602;28;20201;-53
2023/08/29 12:55:55;;;;;;;1.70;1.40;;;;;;;;;;5073468;28;20197;-53
2023/08/29 12:58:22;;;;;;;2.73;1.53;;;;;;;;;;5073421;28;20194;-53
2023/08/29 13:00:48;;;;;;;2.43;1.90;;;;;;;;;;5073301;28;20247;-52
2023/08/29 13:03:14;;;;;;;3.40;1.50;;;;;;;;;;5073073;28;20200;-53
2023/08/29 13:05:42;;;;;;;2.07;1.67;;;;;;;;;;5073173;28;20229;-53
2023/08/29 13:08:09;;;;;;;4.67;1.60;;;;;;;;;;5073260;28;20684;-53
2023/08/29 13:10:35;;;;;;;1.43;1.33;;;;;;;;;;5072990;28;20206;-53
2023/08/29 13:13:04;;;;;;;1.90;1.60;;;;;;;;;;5073032;28;20198;-53
2023/08/29 13:15:30;;;;;;;2.70;1.70;;;;;;;;;;5073130;28;20205;-53
2023/08/29 13:17:56;;;;;;;1.93;1.40;;;;;;;;;;5072994;28;20561;-53
2023/08/29 13:20:22;;;;;;;2.13;1.50;;;;;;;;;;5073027;28;20185;-53
2023/08/29 13:22:49;;;;;;;1.27;1.17;;;;;;;;;;5071677;28;20250;-53
2023/08/29 13:25:19;;;;;;;1.30;1.20;;;;;;;;;;5072676;28;20216;-52
2023/08/29 13:27:46;;;;;;;1.77;1.20;;;;;;;;;;5072757;28;20275;-52
2023/08/29 13:30:15;;;;;;;1.37;1.27;;;;;;;;;;5072680;28;20274;-54
2023/08/29 13:32:42;;;;;;;1.47;1.30;;;;;;;;;;5072655;28;20253;-53
2023/08/29 13:35:08;;;;;;;1.70;1.20;;;;;;;;;;5072591;28;20203;-53
2023/08/29 13:37:34;;;;;;;2.70;1.20;;;;;;;;;;5072641;28;20196;-53
2023/08/29 13:40:05;;;;;;;2.63;1.20;;;;;;;;;;5072385;28;20191;-53
2023/08/29 13:42:31;;;;;;;2.70;1.13;;;;;;;;;;5072139;28;20243;-53
2023/08/29 13:44:57;;;;;;;1.20;1.07;;;;;;;;;;5072465;28;20230;-54
2023/08/29 13:47:23;;;;;;;2.37;1.30;;;;;;;;;;5072291;28;20649;-51
2023/08/29 13:49:49;;;;;;;2.40;1.33;;;;;;;;;;5072219;28;20200;-51
2023/08/29 13:52:15;;;;;;;2.40;1.30;;;;;;;;;;5072239;28;20692;-52
2023/08/29 13:54:41;;;;;;;1.20;1.10;;;;;;;;;;5072427;28;20191;-52
2023/08/29 13:57:09;;;;;;;1.33;1.10;;;;;;;;;;5072248;28;20204;-52
2023/08/29 13:59:35;;;;;;;1.30;1.20;;;;;;;;;;5072454;28;20196;-52
2023/08/29 14:02:01;;;;;;;1.43;1.00;;;;;;;;;;5072098;28;20237;-52
2023/08/29 14:04:27;;;;;;;1.93;1.20;;;;;;;;;;5072089;28;20249;-52
2023/08/29 14:06:54;;;;;;;1.13;0.80;;;;;;;;;;5072202;28;20275;-52
2023/08/29 14:09:20;;;;;;;1.50;1.20;;;;;;;;;;5072163;28;20234;-52
2023/08/29 14:11:46;;;;;;;2.10;0.90;;;;;;;;;;5071959;28;20226;-53
2023/08/29 14:14:13;;;;;;;2.67;1.20;;;;;;;;;;5071934;28;20193;-53
2023/08/29 14:16:39;;;;;;;1.10;1.00;;;;;;;;;;5072091;28;20294;-53
2023/08/29 14:19:06;;;;;;;1.40;0.70;;;;;;;;;;5071778;28;20229;-53
2023/08/29 14:21:32;;;;;;;0.73;0.73;;;;;;;;;;5071928;28;20366;-53
2023/08/29 14:23:58;;;;;;;1.10;1.00;;;;;;;;;;5071865;28;20207;-53
2023/08/29 14:26:24;;;;;;;1.03;1.00;;;;;;;;;;5071797;28;20668;-53
2023/08/29 14:28:50;;;;;;;1.20;1.10;;;;;;;;;;5071793;28;20202;-53
2023/08/29 14:31:22;;;;;;;1.00;0.90;;;;;;;;;;5071727;28;20233;-54
2023/08/29 14:33:49;;;;;;;1.13;0.90;;;;;;;;;;5071337;28;20206;-54
2023/08/29 14:36:15;;;;;;;1.40;1.10;;;;;;;;;;5071647;28;20202;-55
2023/08/29 14:38:41;;;;;;;1.30;0.97;;;;;;;;;;5071796;28;20201;-54
2023/08/29 14:41:10;;;;;;;1.93;1.10;;;;;;;;;;5071642;28;20286;-54